createdAt,value
2022-11-29T00:02:14.037Z,23.45
2022-11-29T00:04:40.638Z,22.92
2022-11-29T00:07:07.048Z,23.25
2022-11-29T00:09:33.404Z,22.30
2022-11-29T00:12:15.012Z,22.92
2022-11-29T00:14:41.638Z,23.50
2022-11-29T00:17:08.464Z,21.75
2022-11-29T00:19:36.201Z,22.83
2022-11-29T00:22:03.582Z,22.73
2022-11-29T00:24:32.312Z,23.00
2022-11-29T00:26:58.730Z,22.77
2022-11-29T00:29:25.132Z,21.45
2022-11-29T00:31:51.465Z,21.63
2022-11-29T00:34:17.821Z,21.15
2022-11-29T00:36:44.161Z,21.05
2022-11-29T00:39:12.033Z,21.88
2022-11-29T00:44:05.295Z,22.23
2022-11-29T00:46:31.629Z,22.58
2022-11-29T00:48:57.961Z,20.38
2022-11-29T00:51:24.368Z,21.25
2022-11-29T00:53:50.764Z,21.60
2022-11-29T00:56:17.268Z,20.35
2022-11-29T00:58:43.781Z,21.15
2022-11-29T01:01:10.913Z,20.38
2022-11-29T01:03:37.374Z,20.40
2022-11-29T01:06:05.568Z,20.27
2022-11-29T01:08:32.160Z,20.95
2022-11-29T01:11:12.761Z,19.25
2022-11-29T01:13:39.458Z,20.80
2022-11-29T01:16:06.228Z,18.52
2022-11-29T01:18:33.160Z,19.45
2022-11-29T01:21:01.157Z,19.60
2022-11-29T01:26:01.372Z,19.58
2022-11-29T01:28:28.345Z,20.20
2022-11-29T01:30:54.766Z,17.88
2022-11-29T01:33:21.177Z,18.90
2022-11-29T01:35:48.522Z,18.10
2022-11-29T01:38:14.892Z,17.25
2022-11-29T01:40:41.250Z,17.52
2022-11-29T01:43:25.744Z,17.60
2022-11-29T01:45:52.290Z,17.65
2022-11-29T01:48:19.846Z,16.38
2022-11-29T01:50:46.273Z,15.93
2022-11-29T01:53:14.088Z,17.40
2022-11-29T01:55:41.490Z,19.17
2022-11-29T01:58:08.411Z,18.08
2022-11-29T02:00:35.105Z,18.63
2022-11-29T02:03:11.957Z,17.85
2022-11-29T02:05:39.623Z,16.48
2022-11-29T02:08:07.022Z,16.00
2022-11-29T02:10:47.514Z,16.45
2022-11-29T02:13:26.053Z,16.83
2022-11-29T02:15:56.899Z,17.23
2022-11-29T02:18:32.011Z,16.15
2022-11-29T02:21:23.170Z,16.73
2022-11-29T02:23:49.497Z,17.20
2022-11-29T02:26:18.577Z,17.40
2022-11-29T02:28:47.985Z,16.17
2022-11-29T02:31:33.216Z,15.27
2022-11-29T02:34:08.693Z,15.60
2022-11-29T02:36:47.380Z,15.00
2022-11-29T02:39:30.357Z,15.40
2022-11-29T02:41:59.831Z,15.68
2022-11-29T02:44:38.402Z,14.88
2022-11-29T02:47:07.720Z,15.73
2022-11-29T02:49:37.145Z,14.57
2022-11-29T02:52:07.513Z,15.32
2022-11-29T02:54:33.867Z,15.45
2022-11-29T02:57:04.354Z,17.35
2022-11-29T02:59:39.133Z,15.77
2022-11-29T03:02:12.850Z,14.75
2022-11-29T03:04:45.661Z,14.25
2022-11-29T03:07:31.263Z,15.32
2022-11-29T03:10:16.222Z,14.95
2022-11-29T03:12:47.422Z,14.70
2022-11-29T03:15:19.735Z,14.85
2022-11-29T03:17:59.812Z,15.55
2022-11-29T03:20:28.996Z,14.05
2022-11-29T03:23:08.655Z,14.00
2022-11-29T03:25:48.541Z,14.13
2022-11-29T03:28:18.827Z,14.00
2022-11-29T03:31:01.599Z,14.07
2022-11-29T03:33:32.915Z,14.38
2022-11-29T03:36:04.438Z,13.27
2022-11-29T03:38:44.289Z,13.15
2022-11-29T03:41:32.583Z,14.00
2022-11-29T03:44:07.785Z,12.98
2022-11-29T03:46:43.287Z,12.60
2022-11-29T03:49:16.237Z,13.20
2022-11-29T03:51:49.209Z,12.30
2022-11-29T03:54:22.584Z,13.55
2022-11-29T03:56:49.144Z,13.07
2022-11-29T03:59:29.297Z,12.63
2022-11-29T04:02:14.453Z,12.73
2022-11-29T04:04:46.927Z,13.45
2022-11-29T04:07:13.452Z,13.02
2022-11-29T04:09:42.906Z,12.48
2022-11-29T04:12:22.342Z,12.40
2022-11-29T04:15:10.458Z,12.02
2022-11-29T04:17:42.117Z,13.20
2022-11-29T04:20:17.389Z,13.30
2022-11-29T04:23:03.155Z,13.43
2022-11-29T04:25:40.476Z,11.38
2022-11-29T04:28:06.874Z,12.25
2022-11-29T04:30:52.071Z,12.73
2022-11-29T04:33:36.912Z,11.75
2022-11-29T04:36:19.380Z,12.82
2022-11-29T04:39:08.796Z,12.32
2022-11-29T04:41:44.091Z,12.10
2022-11-29T04:44:13.446Z,11.10
2022-11-29T04:46:56.604Z,10.82
2022-11-29T04:49:35.621Z,10.50
2022-11-29T04:52:01.918Z,11.82
2022-11-29T04:54:31.343Z,11.55
2022-11-29T04:57:20.957Z,11.60
2022-11-29T04:59:49.816Z,11.45
2022-11-29T05:02:35.473Z,11.45
2022-11-29T05:05:01.830Z,11.85
2022-11-29T05:07:43.359Z,11.90
2022-11-29T05:10:20.686Z,11.90
2022-11-29T05:13:01.789Z,12.15
2022-11-29T05:15:28.140Z,11.77
2022-11-29T05:18:13.000Z,11.27
2022-11-29T05:20:39.444Z,11.00
2022-11-29T05:23:08.669Z,10.15
2022-11-29T05:25:35.262Z,10.80
2022-11-29T05:28:10.928Z,11.55
2022-11-29T05:30:55.914Z,10.15
2022-11-29T05:33:36.602Z,12.73
2022-11-29T05:36:12.110Z,12.50
2022-11-29T05:38:52.409Z,13.10
2022-11-29T05:41:30.825Z,11.27
2022-11-29T05:44:14.089Z,14.98
2022-11-29T05:46:49.911Z,14.13
2022-11-29T05:49:38.157Z,12.25
2022-11-29T05:52:04.534Z,13.43
2022-11-29T05:54:36.938Z,13.80
2022-11-29T05:57:03.268Z,13.60
2022-11-29T05:59:30.811Z,13.50
2022-11-29T06:02:12.324Z,12.45
2022-11-29T06:04:57.241Z,11.85
2022-11-29T06:07:35.683Z,11.68
2022-11-29T06:10:05.174Z,13.10
2022-11-29T06:12:35.795Z,14.15
2022-11-29T06:15:04.877Z,14.65
2022-11-29T06:17:48.703Z,21.52
2022-11-29T06:20:30.151Z,16.95
2022-11-29T06:23:05.570Z,15.88
2022-11-29T06:25:43.166Z,14.65
2022-11-29T06:28:15.483Z,14.75
2022-11-29T06:30:44.800Z,15.07
2022-11-29T06:33:22.672Z,14.43
2022-11-29T06:38:21.419Z,14.15
2022-11-29T06:40:48.655Z,13.40
2022-11-29T06:43:15.246Z,14.30
2022-11-29T06:45:45.547Z,14.10
2022-11-29T06:48:15.500Z,13.27
2022-11-29T06:50:54.002Z,13.93
2022-11-29T06:53:32.546Z,13.73
2022-11-29T06:56:01.874Z,13.40
2022-11-29T06:58:36.070Z,12.80
2022-11-29T07:01:02.852Z,15.68
2022-11-29T07:03:35.452Z,13.60
2022-11-29T07:06:08.853Z,13.63
2022-11-29T07:08:35.711Z,13.70
2022-11-29T07:11:02.198Z,14.00
2022-11-29T07:13:28.725Z,13.85
2022-11-29T07:15:58.396Z,14.60
2022-11-29T07:18:46.531Z,15.30
2022-11-29T07:21:21.273Z,16.83
2022-11-29T07:23:59.788Z,17.23
2022-11-29T07:26:38.583Z,15.93
2022-11-29T07:29:05.091Z,15.50
2022-11-29T07:31:41.654Z,16.00
2022-11-29T07:34:14.240Z,14.50
2022-11-29T07:36:59.378Z,14.25
2022-11-29T07:39:37.903Z,12.60
2022-11-29T07:42:20.943Z,13.32
2022-11-29T07:44:55.412Z,14.20
2022-11-29T07:47:21.712Z,14.52
2022-11-29T07:49:48.034Z,15.40
2022-11-29T07:52:16.140Z,15.10
2022-11-29T07:57:09.170Z,16.80
2022-11-29T07:59:35.504Z,17.08
2022-11-29T08:02:02.820Z,17.80
2022-11-29T08:04:31.057Z,15.88
2022-11-29T08:07:00.737Z,18.02
2022-11-29T08:09:27.091Z,17.25
2022-11-29T08:11:53.449Z,20.00
2022-11-29T08:14:19.865Z,16.52
2022-11-29T08:16:46.247Z,15.70
2022-11-29T08:19:12.633Z,16.00
2022-11-29T08:21:39.025Z,16.27
2022-11-29T08:24:05.448Z,17.05
2022-11-29T08:26:32.134Z,22.00
2022-11-29T08:28:58.496Z,21.65
2022-11-29T08:31:24.893Z,18.83
2022-11-29T08:33:51.315Z,19.83
2022-11-29T08:36:19.069Z,18.98
2022-11-29T08:38:46.045Z,18.60
2022-11-29T08:41:13.685Z,18.92
2022-11-29T08:43:40.329Z,16.85
2022-11-29T08:46:06.744Z,17.55
2022-11-29T08:48:33.861Z,16.20
2022-11-29T08:51:00.220Z,17.08
2022-11-29T08:53:43.087Z,17.50
2022-11-29T08:56:53.419Z,17.80
2022-11-29T08:58:59.686Z,18.00
2022-11-29T09:01:26.275Z,17.13
2022-11-29T09:04:07.040Z,15.55
2022-11-29T09:06:44.348Z,14.82
2022-11-29T09:09:10.662Z,15.10
2022-11-29T09:11:37.112Z,19.30
2022-11-29T09:14:05.100Z,18.77
2022-11-29T09:18:57.737Z,15.82
2022-11-29T09:21:24.933Z,14.10
2022-11-29T09:23:58.426Z,16.03
2022-11-29T09:26:27.232Z,20.20
2022-11-29T09:28:53.863Z,29.88
2022-11-29T09:31:20.556Z,22.95
2022-11-29T09:33:47.824Z,18.83
2022-11-29T09:36:14.632Z,12.82
2022-11-29T09:38:41.097Z,10.85
2022-11-29T09:41:26.116Z,10.75
2022-11-29T09:44:00.717Z,10.82
2022-11-29T09:46:39.390Z,9.98
2022-11-29T09:49:25.772Z,14.43
2022-11-29T09:52:04.095Z,11.00
2022-11-29T09:54:47.528Z,10.48
2022-11-29T09:57:16.076Z,9.90
2022-11-29T09:59:44.950Z,10.50
2022-11-29T10:02:21.825Z,9.45
2022-11-29T10:05:01.125Z,8.82
2022-11-29T10:07:35.184Z,8.77
2022-11-29T10:10:21.889Z,10.00
2022-11-29T10:13:11.529Z,10.50
2022-11-29T10:15:39.934Z,10.13
2022-11-29T10:18:09.280Z,11.43
2022-11-29T10:20:41.540Z,10.65
2022-11-29T10:23:29.448Z,11.13
2022-11-29T10:25:56.484Z,11.07
2022-11-29T10:28:27.343Z,10.53
2022-11-29T10:30:54.642Z,9.70
2022-11-29T10:33:23.198Z,9.88
2022-11-29T10:35:51.079Z,9.02
2022-11-29T10:38:32.806Z,9.00
2022-11-29T10:41:04.216Z,9.93
2022-11-29T10:43:30.553Z,8.35
2022-11-29T10:45:58.707Z,9.88
2022-11-29T10:48:27.265Z,13.07
2022-11-29T10:50:53.667Z,10.32
2022-11-29T10:53:22.835Z,9.82
2022-11-29T10:55:58.897Z,11.25
2022-11-29T10:58:28.389Z,8.93
2022-11-29T11:01:02.730Z,10.25
2022-11-29T11:03:32.220Z,8.45
2022-11-29T11:06:13.642Z,9.02
2022-11-29T11:08:44.727Z,8.63
2022-11-29T11:11:11.704Z,9.05
2022-11-29T11:13:39.261Z,9.85
2022-11-29T11:16:16.957Z,10.23
2022-11-29T11:18:43.968Z,8.35
2022-11-29T11:21:11.520Z,8.48
2022-11-29T11:23:43.011Z,10.48
2022-11-29T11:26:11.300Z,9.07
2022-11-29T11:28:48.115Z,8.93
2022-11-29T11:31:14.674Z,8.45
2022-11-29T11:33:44.870Z,8.70
2022-11-29T11:36:15.192Z,10.73
2022-11-29T11:38:55.088Z,7.35
2022-11-29T11:41:46.509Z,9.65
2022-11-29T11:47:16.783Z,8.68
2022-11-29T11:49:47.367Z,7.88
2022-11-29T11:52:19.863Z,9.25
2022-11-29T11:54:51.545Z,9.85
2022-11-29T11:57:18.683Z,9.02
2022-11-29T11:59:49.245Z,9.13
2022-11-29T12:02:36.329Z,9.05
2022-11-29T12:05:04.831Z,9.40
2022-11-29T12:08:06.155Z,10.05
2022-11-29T12:10:24.244Z,11.40
2022-11-29T12:12:51.243Z,9.98
2022-11-29T12:15:19.620Z,10.13
2022-11-29T12:17:50.665Z,9.68
2022-11-29T12:20:16.996Z,10.98
2022-11-29T12:22:58.321Z,10.65
2022-11-29T12:25:27.124Z,8.50
2022-11-29T12:27:53.525Z,9.88
2022-11-29T12:30:19.869Z,8.30
2022-11-29T12:32:57.854Z,6.43
2022-11-29T12:35:30.378Z,6.93
2022-11-29T12:37:56.724Z,6.07
2022-11-29T12:40:27.900Z,7.60
2022-11-29T12:43:26.518Z,7.78
2022-11-29T12:46:12.683Z,7.88
2022-11-29T12:48:49.761Z,9.68
2022-11-29T12:51:34.952Z,7.63
2022-11-29T12:54:16.116Z,7.10
2022-11-29T12:56:47.070Z,12.23
2022-11-29T12:59:13.369Z,13.05
2022-11-29T13:01:39.740Z,10.18
2022-11-29T13:04:16.088Z,9.07
2022-11-29T13:06:47.712Z,11.35
2022-11-29T13:09:14.015Z,7.22
2022-11-29T13:11:43.270Z,6.55
2022-11-29T13:14:42.121Z,7.15
2022-11-29T13:17:15.772Z,7.18
2022-11-29T13:19:50.197Z,7.38
2022-11-29T13:22:28.984Z,10.57
2022-11-29T13:25:01.365Z,7.97
2022-11-29T13:27:27.694Z,7.55
2022-11-29T13:29:54.505Z,6.40
2022-11-29T13:32:31.333Z,7.63
2022-11-29T13:35:01.366Z,8.50
2022-11-29T13:37:35.329Z,8.27
2022-11-29T13:40:20.593Z,6.90
2022-11-29T13:42:51.377Z,5.53
2022-11-29T13:45:53.115Z,6.18
2022-11-29T13:48:28.371Z,6.20
2022-11-29T13:50:55.781Z,6.60
2022-11-29T13:53:23.660Z,6.70
2022-11-29T13:55:59.982Z,5.97
2022-11-29T13:58:30.569Z,7.32
2022-11-29T14:01:00.981Z,6.97
2022-11-29T14:03:32.253Z,5.55
2022-11-29T14:06:01.389Z,5.88
2022-11-29T14:08:54.546Z,6.28
2022-11-29T14:11:22.413Z,6.45
2022-11-29T14:13:51.904Z,8.00
2022-11-29T14:16:27.509Z,7.18
2022-11-29T14:19:03.902Z,6.53
2022-11-29T14:21:48.843Z,7.00
2022-11-29T14:24:36.792Z,6.10
2022-11-29T14:27:06.167Z,8.43
2022-11-29T14:29:54.063Z,7.72
2022-11-29T14:32:26.612Z,7.10
2022-11-29T14:34:52.960Z,6.72
2022-11-29T14:37:27.290Z,9.27
2022-11-29T14:39:55.000Z,8.88
2022-11-29T14:42:23.100Z,7.03
2022-11-29T14:44:51.552Z,9.50
2022-11-29T14:47:47.277Z,9.10
2022-11-29T14:50:28.500Z,9.90
2022-11-29T14:52:54.829Z,8.60
2022-11-29T14:55:21.136Z,10.02
2022-11-29T14:57:47.789Z,11.52
2022-11-29T15:00:14.240Z,10.02
2022-11-29T15:02:49.694Z,9.60
2022-11-29T15:05:31.417Z,9.57
2022-11-29T15:08:03.858Z,9.15
2022-11-29T15:10:33.439Z,8.15
2022-11-29T15:13:00.514Z,8.82
2022-11-29T15:15:32.919Z,8.70
2022-11-29T15:18:11.408Z,9.75
2022-11-29T15:20:46.221Z,9.02
2022-11-29T15:23:14.979Z,9.90
2022-11-29T15:25:50.555Z,9.30
2022-11-29T15:28:21.375Z,8.10
2022-11-29T15:30:48.801Z,8.60
2022-11-29T15:33:19.755Z,12.52
2022-11-29T15:35:50.637Z,11.13
2022-11-29T15:38:18.024Z,11.15
2022-11-29T15:40:52.215Z,9.60
2022-11-29T15:43:23.616Z,9.98
2022-11-29T15:45:50.695Z,9.82
2022-11-29T15:48:20.316Z,9.20
2022-11-29T15:50:52.645Z,10.15
2022-11-29T15:53:25.732Z,10.80
2022-11-29T15:55:54.009Z,11.23
2022-11-29T15:58:20.513Z,9.55
2022-11-29T16:00:49.849Z,9.57
2022-11-29T16:03:25.443Z,9.18
2022-11-29T16:06:04.186Z,8.73
2022-11-29T16:08:33.608Z,10.55
2022-11-29T16:11:00.441Z,10.18
2022-11-29T16:13:32.862Z,10.55
2022-11-29T16:16:14.252Z,10.93
2022-11-29T16:18:41.919Z,11.18
2022-11-29T16:21:21.657Z,11.70
2022-11-29T16:23:49.260Z,11.18
2022-11-29T16:26:22.497Z,10.50
2022-11-29T16:28:50.421Z,10.35
2022-11-29T16:31:18.209Z,12.55
2022-11-29T16:33:45.359Z,12.10
2022-11-29T16:36:11.798Z,11.50
2022-11-29T16:38:43.301Z,12.65
2022-11-29T16:41:21.397Z,10.85
2022-11-29T16:43:53.566Z,12.43
2022-11-29T16:46:19.921Z,11.93
2022-11-29T16:48:46.599Z,13.93
2022-11-29T16:51:13.505Z,13.40
2022-11-29T16:53:42.281Z,14.25
2022-11-29T16:56:10.895Z,16.10
2022-11-29T16:59:16.573Z,14.07
2022-11-29T17:01:26.108Z,12.88
2022-11-29T17:03:52.906Z,12.18
2022-11-29T17:06:23.733Z,13.20
2022-11-29T17:08:54.254Z,11.93
2022-11-29T17:11:20.789Z,14.93
2022-11-29T17:13:47.832Z,19.60
2022-11-29T17:16:15.024Z,12.30
2022-11-29T17:18:42.145Z,12.25
2022-11-29T17:21:18.097Z,19.40
2022-11-29T17:23:45.140Z,14.43
2022-11-29T17:26:11.457Z,14.40
2022-11-29T17:28:39.733Z,20.52
2022-11-29T17:31:10.382Z,12.15
2022-11-29T17:33:36.713Z,13.75
2022-11-29T17:36:07.313Z,15.02
2022-11-29T17:38:33.930Z,16.00
2022-11-29T17:41:00.293Z,17.65
2022-11-29T17:43:26.702Z,16.80
2022-11-29T17:45:53.150Z,18.63
2022-11-29T17:48:19.572Z,19.95
2022-11-29T17:50:45.918Z,16.80
2022-11-29T17:53:12.269Z,16.42
2022-11-29T17:55:38.689Z,15.23
2022-11-29T17:58:05.046Z,16.00
2022-11-29T18:00:31.369Z,15.73
2022-11-29T18:02:57.759Z,14.55
2022-11-29T18:05:24.138Z,16.25
2022-11-29T18:07:59.707Z,14.10
2022-11-29T18:10:27.332Z,13.40
2022-11-29T18:12:54.129Z,13.23
2022-11-29T18:15:20.558Z,14.38
2022-11-29T18:17:46.923Z,13.25
2022-11-29T18:20:14.162Z,13.93
2022-11-29T18:22:40.488Z,12.32
2022-11-29T18:25:36.918Z,10.98
2022-11-29T18:27:53.347Z,9.77
2022-11-29T18:30:19.735Z,9.00
2022-11-29T18:32:46.106Z,10.75
2022-11-29T18:35:12.449Z,12.82
2022-11-29T18:38:12.995Z,11.70
2022-11-29T18:40:25.111Z,11.27
2022-11-29T18:42:51.468Z,12.00
2022-11-29T18:45:17.781Z,12.95
2022-11-29T18:47:44.482Z,12.57
2022-11-29T18:50:11.046Z,11.32
2022-11-29T18:52:40.713Z,11.63
2022-11-29T18:55:07.485Z,12.63
2022-11-29T18:57:33.874Z,11.48
2022-11-29T19:00:00.211Z,13.10
2022-11-29T19:02:26.607Z,12.50
2022-11-29T19:04:52.915Z,12.32
2022-11-29T19:07:19.313Z,11.57
2022-11-29T19:09:45.705Z,11.38
2022-11-29T19:12:12.081Z,11.18
2022-11-29T19:14:40.975Z,10.02
2022-11-29T19:17:09.116Z,10.77
2022-11-29T19:19:35.544Z,11.38
2022-11-29T19:22:01.913Z,9.93
2022-11-29T19:24:28.248Z,10.15
2022-11-29T19:26:56.203Z,10.50
2022-11-29T19:31:50.337Z,10.98
2022-11-29T19:34:16.727Z,11.45
2022-11-29T19:36:44.133Z,12.43
2022-11-29T19:39:12.170Z,12.77
2022-11-29T19:41:38.757Z,13.40
2022-11-29T19:44:06.316Z,15.35
2022-11-29T19:46:34.060Z,14.90
2022-11-29T19:49:00.818Z,12.95
2022-11-29T19:51:28.129Z,13.52
2022-11-29T19:53:55.336Z,13.85
2022-11-29T19:56:21.708Z,15.50
2022-11-29T19:58:48.076Z,14.40
2022-11-29T20:01:25.265Z,14.40
2022-11-29T20:03:52.327Z,12.35
2022-11-29T20:06:19.030Z,13.13
2022-11-29T20:08:45.370Z,12.32
2022-11-29T20:11:19.712Z,11.50
2022-11-29T20:13:47.385Z,11.90
2022-11-29T20:16:15.906Z,13.48
2022-11-29T20:18:50.111Z,11.73
2022-11-29T20:21:18.878Z,12.30
2022-11-29T20:26:15.693Z,12.23
2022-11-29T20:28:42.361Z,18.60
2022-11-29T20:31:09.708Z,13.00
2022-11-29T20:33:36.144Z,13.00
2022-11-29T20:36:11.441Z,14.13
2022-11-29T20:38:43.909Z,21.77
2022-11-29T20:41:15.297Z,12.65
2022-11-29T20:43:46.981Z,11.80
2022-11-29T20:46:13.628Z,11.85
2022-11-29T20:48:40.141Z,14.23
2022-11-29T20:51:06.763Z,14.68
2022-11-29T20:53:35.106Z,13.75
2022-11-29T20:56:01.872Z,13.73
2022-11-29T20:58:28.193Z,13.27
2022-11-29T21:00:55.215Z,12.70
2022-11-29T21:03:22.266Z,12.50
2022-11-29T21:05:49.069Z,13.83
2022-11-29T21:08:16.268Z,12.57
2022-11-29T21:10:42.608Z,13.20
2022-11-29T21:13:10.654Z,13.88
2022-11-29T21:18:03.411Z,15.60
2022-11-29T21:20:29.891Z,16.50
2022-11-29T21:23:02.181Z,15.88
2022-11-29T21:25:31.500Z,16.83
2022-11-29T21:27:58.001Z,15.93
2022-11-29T21:30:24.881Z,14.95
2022-11-29T21:32:52.097Z,14.30
2022-11-29T21:35:18.606Z,16.63
2022-11-29T21:37:45.560Z,16.50
2022-11-29T21:40:12.661Z,18.55
2022-11-29T21:42:39.134Z,18.60
2022-11-29T21:45:09.284Z,16.83
2022-11-29T21:47:39.725Z,16.40
2022-11-29T21:50:06.489Z,16.83
2022-11-29T21:52:32.843Z,16.67
2022-11-29T21:54:59.232Z,15.55
2022-11-29T21:57:25.599Z,18.27
2022-11-29T21:59:51.974Z,18.27
2022-11-29T22:02:18.477Z,18.85
2022-11-29T22:04:45.395Z,18.02
2022-11-29T22:07:11.992Z,17.70
2022-11-29T22:09:38.487Z,17.50
2022-11-29T22:12:19.749Z,18.17
2022-11-29T22:14:51.348Z,18.48
2022-11-29T22:17:17.672Z,17.15
2022-11-29T22:19:44.005Z,18.17
2022-11-29T22:22:10.946Z,17.02
2022-11-29T22:24:37.726Z,18.55
2022-11-29T22:27:04.173Z,18.67
2022-11-29T22:29:30.537Z,19.10
2022-11-29T22:31:57.451Z,18.40
2022-11-29T22:34:25.235Z,18.75
2022-11-29T22:36:51.617Z,18.50
2022-11-29T22:39:17.933Z,19.02
2022-11-29T22:41:47.003Z,18.38
2022-11-29T22:44:15.729Z,18.83
2022-11-29T22:46:42.181Z,19.88
2022-11-29T22:49:08.850Z,17.38
2022-11-29T22:51:36.338Z,18.52
2022-11-29T22:54:04.440Z,19.17
2022-11-29T22:56:32.053Z,18.17
2022-11-29T22:58:58.500Z,18.38
2022-11-29T23:01:26.065Z,17.95
2022-11-29T23:03:54.494Z,17.80
2022-11-29T23:06:22.512Z,18.02
2022-11-29T23:11:19.532Z,17.77
2022-11-29T23:13:45.961Z,17.30
2022-11-29T23:16:13.516Z,18.10
2022-11-29T23:18:42.189Z,17.52
2022-11-29T23:21:12.773Z,16.42
2022-11-29T23:23:39.667Z,17.30
2022-11-29T23:26:06.708Z,17.60
2022-11-29T23:28:33.575Z,16.88
2022-11-29T23:30:59.962Z,17.13
2022-11-29T23:33:26.955Z,17.67
2022-11-29T23:35:59.478Z,17.80
2022-11-29T23:38:25.838Z,18.58
2022-11-29T23:40:52.173Z,17.27
2022-11-29T23:43:18.612Z,18.10
2022-11-29T23:45:45.041Z,19.63
2022-11-29T23:48:11.392Z,18.08
2022-11-29T23:50:37.723Z,18.33
2022-11-29T23:53:04.285Z,18.70
2022-11-29T23:55:30.671Z,18.92
2022-11-29T23:58:00.613Z,17.17
